sensor_id;sensor_type;location;lat;lon;timestamp;P1;durP1;ratioP1;P2;durP2;ratioP2
22248;SDS011;67538;52.180;5.646;2023-11-21T00:01:20;22.17;;;10.43;;
22248;SDS011;67538;52.180;5.646;2023-11-21T00:03:47;18.30;;;10.20;;
22248;SDS011;67538;52.180;5.646;2023-11-21T00:06:15;23.27;;;11.97;;
22248;SDS011;67538;52.180;5.646;2023-11-21T00:08:43;26.17;;;12.80;;
22248;SDS011;67538;52.180;5.646;2023-11-21T00:11:10;22.57;;;12.83;;
22248;SDS011;67538;52.180;5.646;2023-11-21T00:13:37;30.53;;;12.63;;
22248;SDS011;67538;52.180;5.646;2023-11-21T00:16:04;27.13;;;12.40;;
22248;SDS011;67538;52.180;5.646;2023-11-21T00:18:32;28.70;;;13.87;;
22248;SDS011;67538;52.180;5.646;2023-11-21T00:20:59;28.50;;;14.20;;
22248;SDS011;67538;52.180;5.646;2023-11-21T00:23:26;32.60;;;15.37;;
22248;SDS011;67538;52.180;5.646;2023-11-21T00:25:54;34.20;;;14.17;;
22248;SDS011;67538;52.180;5.646;2023-11-21T00:28:21;26.33;;;13.50;;
22248;SDS011;67538;52.180;5.646;2023-11-21T00:30:48;29.63;;;12.77;;
22248;SDS011;67538;52.180;5.646;2023-11-21T00:33:15;25.87;;;14.27;;
22248;SDS011;67538;52.180;5.646;2023-11-21T00:35:42;25.10;;;13.00;;
22248;SDS011;67538;52.180;5.646;2023-11-21T00:38:09;29.50;;;14.73;;
22248;SDS011;67538;52.180;5.646;2023-11-21T00:40:37;30.67;;;15.47;;
22248;SDS011;67538;52.180;5.646;2023-11-21T00:43:05;31.43;;;14.60;;
22248;SDS011;67538;52.180;5.646;2023-11-21T00:45:32;34.00;;;15.63;;
22248;SDS011;67538;52.180;5.646;2023-11-21T00:48:00;39.97;;;15.13;;
22248;SDS011;67538;52.180;5.646;2023-11-21T00:50:27;74.17;;;16.80;;
22248;SDS011;67538;52.180;5.646;2023-11-21T00:52:54;83.17;;;17.70;;
22248;SDS011;67538;52.180;5.646;2023-11-21T00:55:22;99.40;;;21.70;;
22248;SDS011;67538;52.180;5.646;2023-11-21T00:57:50;58.17;;;17.83;;
22248;SDS011;67538;52.180;5.646;2023-11-21T01:00:18;37.20;;;16.90;;
22248;SDS011;67538;52.180;5.646;2023-11-21T01:02:45;38.53;;;17.53;;
22248;SDS011;67538;52.180;5.646;2023-11-21T01:05:13;57.23;;;20.47;;
22248;SDS011;67538;52.180;5.646;2023-11-21T01:07:40;39.60;;;18.53;;
22248;SDS011;67538;52.180;5.646;2023-11-21T01:10:08;37.57;;;16.43;;
22248;SDS011;67538;52.180;5.646;2023-11-21T01:12:35;51.10;;;17.20;;
22248;SDS011;67538;52.180;5.646;2023-11-21T01:15:03;41.40;;;16.83;;
22248;SDS011;67538;52.180;5.646;2023-11-21T01:17:34;43.40;;;16.83;;
22248;SDS011;67538;52.180;5.646;2023-11-21T01:20:02;33.07;;;16.17;;
22248;SDS011;67538;52.180;5.646;2023-11-21T01:22:31;54.30;;;18.43;;
22248;SDS011;67538;52.180;5.646;2023-11-21T01:24:58;58.40;;;19.97;;
22248;SDS011;67538;52.180;5.646;2023-11-21T01:27:25;53.17;;;19.07;;
22248;SDS011;67538;52.180;5.646;2023-11-21T01:29:52;55.57;;;18.67;;
22248;SDS011;67538;52.180;5.646;2023-11-21T01:32:19;41.17;;;17.50;;
22248;SDS011;67538;52.180;5.646;2023-11-21T01:34:49;52.80;;;17.73;;
22248;SDS011;67538;52.180;5.646;2023-11-21T01:37:17;61.27;;;19.90;;
22248;SDS011;67538;52.180;5.646;2023-11-21T01:39:44;53.93;;;18.63;;
22248;SDS011;67538;52.180;5.646;2023-11-21T01:42:12;58.17;;;19.30;;
22248;SDS011;67538;52.180;5.646;2023-11-21T01:44:39;49.90;;;18.27;;
22248;SDS011;67538;52.180;5.646;2023-11-21T01:47:06;51.00;;;18.80;;
22248;SDS011;67538;52.180;5.646;2023-11-21T01:49:34;42.67;;;18.57;;
22248;SDS011;67538;52.180;5.646;2023-11-21T01:52:03;45.10;;;17.90;;
22248;SDS011;67538;52.180;5.646;2023-11-21T01:54:31;49.83;;;18.10;;
22248;SDS011;67538;52.180;5.646;2023-11-21T01:56:59;56.03;;;18.80;;
22248;SDS011;67538;52.180;5.646;2023-11-21T01:59:29;56.77;;;19.47;;
22248;SDS011;67538;52.180;5.646;2023-11-21T02:02:01;88.17;;;18.93;;
22248;SDS011;67538;52.180;5.646;2023-11-21T02:04:30;80.67;;;18.83;;
22248;SDS011;67538;52.180;5.646;2023-11-21T02:06:57;58.17;;;18.67;;
22248;SDS011;67538;52.180;5.646;2023-11-21T02:09:27;54.00;;;18.97;;
22248;SDS011;67538;52.180;5.646;2023-11-21T02:11:55;43.67;;;18.23;;
22248;SDS011;67538;52.180;5.646;2023-11-21T02:14:23;53.33;;;17.30;;
22248;SDS011;67538;52.180;5.646;2023-11-21T02:16:52;43.37;;;17.43;;
22248;SDS011;67538;52.180;5.646;2023-11-21T02:19:20;40.87;;;16.90;;
22248;SDS011;67538;52.180;5.646;2023-11-21T02:21:50;42.37;;;17.13;;
22248;SDS011;67538;52.180;5.646;2023-11-21T02:24:20;45.10;;;17.40;;
22248;SDS011;67538;52.180;5.646;2023-11-21T02:26:47;41.20;;;17.17;;
22248;SDS011;67538;52.180;5.646;2023-11-21T02:29:16;47.93;;;18.93;;
22248;SDS011;67538;52.180;5.646;2023-11-21T02:31:44;44.37;;;17.73;;
22248;SDS011;67538;52.180;5.646;2023-11-21T02:34:14;44.77;;;18.53;;
22248;SDS011;67538;52.180;5.646;2023-11-21T02:36:41;46.20;;;17.40;;
22248;SDS011;67538;52.180;5.646;2023-11-21T02:39:08;43.63;;;18.97;;
22248;SDS011;67538;52.180;5.646;2023-11-21T02:41:37;59.23;;;18.30;;
22248;SDS011;67538;52.180;5.646;2023-11-21T02:44:05;38.77;;;17.50;;
22248;SDS011;67538;52.180;5.646;2023-11-21T02:46:32;41.40;;;18.20;;
22248;SDS011;67538;52.180;5.646;2023-11-21T02:49:00;48.13;;;17.87;;
22248;SDS011;67538;52.180;5.646;2023-11-21T02:51:27;43.80;;;17.43;;
22248;SDS011;67538;52.180;5.646;2023-11-21T02:53:54;45.57;;;18.40;;
22248;SDS011;67538;52.180;5.646;2023-11-21T02:56:24;44.43;;;16.97;;
22248;SDS011;67538;52.180;5.646;2023-11-21T02:58:55;44.57;;;18.43;;
22248;SDS011;67538;52.180;5.646;2023-11-21T03:01:22;41.63;;;17.87;;
22248;SDS011;67538;52.180;5.646;2023-11-21T03:03:50;39.30;;;17.67;;
22248;SDS011;67538;52.180;5.646;2023-11-21T03:06:17;39.23;;;16.50;;
22248;SDS011;67538;52.180;5.646;2023-11-21T03:08:44;41.50;;;18.03;;
22248;SDS011;67538;52.180;5.646;2023-11-21T03:11:12;41.90;;;17.60;;
22248;SDS011;67538;52.180;5.646;2023-11-21T03:13:39;39.67;;;16.83;;
22248;SDS011;67538;52.180;5.646;2023-11-21T03:16:09;47.43;;;17.47;;
22248;SDS011;67538;52.180;5.646;2023-11-21T03:18:36;40.37;;;16.63;;
22248;SDS011;67538;52.180;5.646;2023-11-21T03:21:04;39.23;;;16.20;;
22248;SDS011;67538;52.180;5.646;2023-11-21T03:23:33;45.27;;;17.70;;
22248;SDS011;67538;52.180;5.646;2023-11-21T03:26:00;43.30;;;16.93;;
22248;SDS011;67538;52.180;5.646;2023-11-21T03:28:27;41.73;;;16.23;;
22248;SDS011;67538;52.180;5.646;2023-11-21T03:30:55;46.47;;;16.83;;
22248;SDS011;67538;52.180;5.646;2023-11-21T03:33:23;42.33;;;16.50;;
22248;SDS011;67538;52.180;5.646;2023-11-21T03:35:50;39.47;;;17.23;;
22248;SDS011;67538;52.180;5.646;2023-11-21T03:38:18;36.03;;;17.27;;
22248;SDS011;67538;52.180;5.646;2023-11-21T03:40:45;36.60;;;16.37;;
22248;SDS011;67538;52.180;5.646;2023-11-21T03:43:13;41.13;;;16.70;;
22248;SDS011;67538;52.180;5.646;2023-11-21T03:45:40;39.00;;;17.10;;
22248;SDS011;67538;52.180;5.646;2023-11-21T03:48:07;43.60;;;17.63;;
22248;SDS011;67538;52.180;5.646;2023-11-21T03:50:35;37.50;;;16.50;;
22248;SDS011;67538;52.180;5.646;2023-11-21T03:53:02;42.73;;;16.80;;
22248;SDS011;67538;52.180;5.646;2023-11-21T03:55:29;35.33;;;15.67;;
22248;SDS011;67538;52.180;5.646;2023-11-21T03:57:57;32.03;;;15.23;;
22248;SDS011;67538;52.180;5.646;2023-11-21T04:00:24;36.00;;;16.77;;
22248;SDS011;67538;52.180;5.646;2023-11-21T04:02:52;38.10;;;15.57;;
22248;SDS011;67538;52.180;5.646;2023-11-21T04:05:19;45.13;;;16.10;;
22248;SDS011;67538;52.180;5.646;2023-11-21T04:07:49;43.57;;;15.80;;
22248;SDS011;67538;52.180;5.646;2023-11-21T04:10:17;41.77;;;16.53;;
22248;SDS011;67538;52.180;5.646;2023-11-21T04:12:44;32.97;;;16.40;;
22248;SDS011;67538;52.180;5.646;2023-11-21T04:15:12;43.43;;;16.20;;
22248;SDS011;67538;52.180;5.646;2023-11-21T04:17:39;45.47;;;16.87;;
22248;SDS011;67538;52.180;5.646;2023-11-21T04:20:07;42.00;;;16.37;;
22248;SDS011;67538;52.180;5.646;2023-11-21T04:22:36;41.80;;;16.40;;
22248;SDS011;67538;52.180;5.646;2023-11-21T04:25:07;42.07;;;16.57;;
22248;SDS011;67538;52.180;5.646;2023-11-21T04:27:35;45.40;;;16.40;;
22248;SDS011;67538;52.180;5.646;2023-11-21T04:30:02;42.97;;;16.07;;
22248;SDS011;67538;52.180;5.646;2023-11-21T04:32:30;40.10;;;15.23;;
22248;SDS011;67538;52.180;5.646;2023-11-21T04:34:57;45.47;;;16.87;;
22248;SDS011;67538;52.180;5.646;2023-11-21T04:37:24;43.50;;;15.67;;
22248;SDS011;67538;52.180;5.646;2023-11-21T04:39:51;45.03;;;15.33;;
22248;SDS011;67538;52.180;5.646;2023-11-21T04:42:19;44.50;;;14.70;;
22248;SDS011;67538;52.180;5.646;2023-11-21T04:44:46;43.20;;;14.60;;
22248;SDS011;67538;52.180;5.646;2023-11-21T04:47:13;33.47;;;15.47;;
22248;SDS011;67538;52.180;5.646;2023-11-21T04:49:41;29.30;;;14.67;;
22248;SDS011;67538;52.180;5.646;2023-11-21T04:52:09;34.53;;;14.63;;
22248;SDS011;67538;52.180;5.646;2023-11-21T04:54:36;34.10;;;15.10;;
22248;SDS011;67538;52.180;5.646;2023-11-21T04:57:05;34.73;;;14.27;;
22248;SDS011;67538;52.180;5.646;2023-11-21T04:59:33;34.37;;;13.80;;
22248;SDS011;67538;52.180;5.646;2023-11-21T05:02:00;36.43;;;14.10;;
22248;SDS011;67538;52.180;5.646;2023-11-21T05:04:28;33.53;;;14.07;;
22248;SDS011;67538;52.180;5.646;2023-11-21T05:06:55;40.47;;;14.03;;
22248;SDS011;67538;52.180;5.646;2023-11-21T05:09:22;33.73;;;14.27;;
22248;SDS011;67538;52.180;5.646;2023-11-21T05:11:49;42.57;;;15.17;;
22248;SDS011;67538;52.180;5.646;2023-11-21T05:14:16;35.33;;;14.33;;
22248;SDS011;67538;52.180;5.646;2023-11-21T05:16:45;39.13;;;15.20;;
22248;SDS011;67538;52.180;5.646;2023-11-21T05:19:12;40.83;;;15.67;;
22248;SDS011;67538;52.180;5.646;2023-11-21T05:21:39;40.77;;;15.43;;
22248;SDS011;67538;52.180;5.646;2023-11-21T05:24:06;35.53;;;15.17;;
22248;SDS011;67538;52.180;5.646;2023-11-21T05:26:34;38.03;;;16.90;;
22248;SDS011;67538;52.180;5.646;2023-11-21T05:29:01;36.63;;;14.83;;
22248;SDS011;67538;52.180;5.646;2023-11-21T05:31:28;44.97;;;15.73;;
22248;SDS011;67538;52.180;5.646;2023-11-21T05:33:57;37.80;;;15.83;;
22248;SDS011;67538;52.180;5.646;2023-11-21T05:36:24;46.77;;;15.50;;
22248;SDS011;67538;52.180;5.646;2023-11-21T05:38:51;40.03;;;15.93;;
22248;SDS011;67538;52.180;5.646;2023-11-21T05:41:18;41.60;;;16.03;;
22248;SDS011;67538;52.180;5.646;2023-11-21T05:43:45;34.80;;;15.23;;
22248;SDS011;67538;52.180;5.646;2023-11-21T05:46:12;46.23;;;15.67;;
22248;SDS011;67538;52.180;5.646;2023-11-21T05:48:39;38.60;;;16.20;;
22248;SDS011;67538;52.180;5.646;2023-11-21T05:51:08;38.57;;;15.73;;
22248;SDS011;67538;52.180;5.646;2023-11-21T05:53:37;37.03;;;15.83;;
22248;SDS011;67538;52.180;5.646;2023-11-21T05:56:04;38.97;;;15.27;;
22248;SDS011;67538;52.180;5.646;2023-11-21T05:58:32;49.33;;;16.57;;
22248;SDS011;67538;52.180;5.646;2023-11-21T06:00:59;46.83;;;16.57;;
22248;SDS011;67538;52.180;5.646;2023-11-21T06:03:26;50.07;;;17.63;;
22248;SDS011;67538;52.180;5.646;2023-11-21T06:05:53;44.63;;;16.33;;
22248;SDS011;67538;52.180;5.646;2023-11-21T06:08:22;42.63;;;16.73;;
22248;SDS011;67538;52.180;5.646;2023-11-21T06:10:49;50.40;;;17.67;;
22248;SDS011;67538;52.180;5.646;2023-11-21T06:13:16;43.80;;;16.87;;
22248;SDS011;67538;52.180;5.646;2023-11-21T06:15:45;36.90;;;16.50;;
22248;SDS011;67538;52.180;5.646;2023-11-21T06:18:12;47.20;;;16.93;;
22248;SDS011;67538;52.180;5.646;2023-11-21T06:20:39;36.67;;;15.93;;
22248;SDS011;67538;52.180;5.646;2023-11-21T06:23:06;39.03;;;17.50;;
22248;SDS011;67538;52.180;5.646;2023-11-21T06:25:35;41.87;;;17.93;;
22248;SDS011;67538;52.180;5.646;2023-11-21T06:28:03;40.60;;;17.40;;
22248;SDS011;67538;52.180;5.646;2023-11-21T06:30:30;47.63;;;18.50;;
22248;SDS011;67538;52.180;5.646;2023-11-21T06:32:57;54.13;;;19.03;;
22248;SDS011;67538;52.180;5.646;2023-11-21T06:35:24;42.13;;;18.43;;
22248;SDS011;67538;52.180;5.646;2023-11-21T06:37:52;37.93;;;17.30;;
22248;SDS011;67538;52.180;5.646;2023-11-21T06:40:19;36.33;;;17.43;;
22248;SDS011;67538;52.180;5.646;2023-11-21T06:42:48;46.97;;;17.97;;
22248;SDS011;67538;52.180;5.646;2023-11-21T06:45:15;40.80;;;17.40;;
22248;SDS011;67538;52.180;5.646;2023-11-21T06:47:42;42.90;;;17.27;;
22248;SDS011;67538;52.180;5.646;2023-11-21T06:50:10;37.90;;;16.70;;
22248;SDS011;67538;52.180;5.646;2023-11-21T06:52:37;43.30;;;17.20;;
22248;SDS011;67538;52.180;5.646;2023-11-21T06:55:05;38.40;;;17.47;;
22248;SDS011;67538;52.180;5.646;2023-11-21T06:57:33;40.60;;;18.00;;
22248;SDS011;67538;52.180;5.646;2023-11-21T07:00:01;38.93;;;17.47;;
22248;SDS011;67538;52.180;5.646;2023-11-21T07:02:29;39.57;;;16.27;;
22248;SDS011;67538;52.180;5.646;2023-11-21T07:04:56;41.90;;;18.03;;
22248;SDS011;67538;52.180;5.646;2023-11-21T07:07:23;37.40;;;17.53;;
22248;SDS011;67538;52.180;5.646;2023-11-21T07:09:50;37.80;;;17.37;;
22248;SDS011;67538;52.180;5.646;2023-11-21T07:12:17;38.80;;;16.90;;
22248;SDS011;67538;52.180;5.646;2023-11-21T07:14:44;35.83;;;16.87;;
22248;SDS011;67538;52.180;5.646;2023-11-21T07:17:13;37.47;;;16.00;;
22248;SDS011;67538;52.180;5.646;2023-11-21T07:19:40;35.83;;;15.87;;
22248;SDS011;67538;52.180;5.646;2023-11-21T07:22:07;33.90;;;15.63;;
22248;SDS011;67538;52.180;5.646;2023-11-21T07:24:34;37.63;;;17.10;;
22248;SDS011;67538;52.180;5.646;2023-11-21T07:27:02;34.97;;;16.83;;
22248;SDS011;67538;52.180;5.646;2023-11-21T07:29:29;30.77;;;16.30;;
22248;SDS011;67538;52.180;5.646;2023-11-21T07:31:56;43.50;;;18.00;;
22248;SDS011;67538;52.180;5.646;2023-11-21T07:34:24;43.40;;;17.10;;
22248;SDS011;67538;52.180;5.646;2023-11-21T07:36:51;39.27;;;16.50;;
22248;SDS011;67538;52.180;5.646;2023-11-21T07:39:18;33.70;;;16.17;;
22248;SDS011;67538;52.180;5.646;2023-11-21T07:41:46;39.20;;;17.23;;
22248;SDS011;67538;52.180;5.646;2023-11-21T07:44:15;33.93;;;16.20;;
22248;SDS011;67538;52.180;5.646;2023-11-21T07:46:44;46.03;;;17.03;;
22248;SDS011;67538;52.180;5.646;2023-11-21T07:49:11;40.10;;;16.67;;
22248;SDS011;67538;52.180;5.646;2023-11-21T07:51:42;38.03;;;18.13;;
22248;SDS011;67538;52.180;5.646;2023-11-21T07:54:10;35.33;;;17.13;;
22248;SDS011;67538;52.180;5.646;2023-11-21T07:56:37;35.40;;;18.07;;
22248;SDS011;67538;52.180;5.646;2023-11-21T07:59:04;32.67;;;16.57;;
22248;SDS011;67538;52.180;5.646;2023-11-21T08:01:31;45.97;;;18.13;;
22248;SDS011;67538;52.180;5.646;2023-11-21T08:03:58;40.63;;;17.47;;
22248;SDS011;67538;52.180;5.646;2023-11-21T08:06:28;50.00;;;17.67;;
22248;SDS011;67538;52.180;5.646;2023-11-21T08:08:57;42.17;;;17.90;;
22248;SDS011;67538;52.180;5.646;2023-11-21T08:11:24;37.57;;;16.27;;
22248;SDS011;67538;52.180;5.646;2023-11-21T08:13:51;37.87;;;17.50;;
22248;SDS011;67538;52.180;5.646;2023-11-21T08:16:18;46.90;;;17.60;;
22248;SDS011;67538;52.180;5.646;2023-11-21T08:18:45;39.47;;;17.83;;
22248;SDS011;67538;52.180;5.646;2023-11-21T08:21:12;37.27;;;17.67;;
22248;SDS011;67538;52.180;5.646;2023-11-21T08:23:39;37.13;;;18.30;;
22248;SDS011;67538;52.180;5.646;2023-11-21T08:26:08;40.10;;;18.13;;
22248;SDS011;67538;52.180;5.646;2023-11-21T08:28:35;37.57;;;18.97;;
22248;SDS011;67538;52.180;5.646;2023-11-21T08:31:02;44.90;;;18.17;;
22248;SDS011;67538;52.180;5.646;2023-11-21T08:33:29;45.40;;;19.57;;
22248;SDS011;67538;52.180;5.646;2023-11-21T08:35:56;42.03;;;18.30;;
22248;SDS011;67538;52.180;5.646;2023-11-21T08:38:23;42.33;;;17.83;;
22248;SDS011;67538;52.180;5.646;2023-11-21T08:40:50;52.50;;;20.47;;
22248;SDS011;67538;52.180;5.646;2023-11-21T08:43:18;43.53;;;19.13;;
22248;SDS011;67538;52.180;5.646;2023-11-21T08:45:46;40.60;;;17.87;;
22248;SDS011;67538;52.180;5.646;2023-11-21T08:48:13;42.07;;;18.63;;
22248;SDS011;67538;52.180;5.646;2023-11-21T08:50:40;44.47;;;18.67;;
22248;SDS011;67538;52.180;5.646;2023-11-21T08:53:07;45.03;;;19.10;;
22248;SDS011;67538;52.180;5.646;2023-11-21T08:55:36;42.83;;;18.00;;
22248;SDS011;67538;52.180;5.646;2023-11-21T08:58:03;41.03;;;18.10;;
22248;SDS011;67538;52.180;5.646;2023-11-21T09:00:33;43.30;;;19.20;;
22248;SDS011;67538;52.180;5.646;2023-11-21T09:03:00;45.57;;;19.00;;
22248;SDS011;67538;52.180;5.646;2023-11-21T09:05:28;52.47;;;18.33;;
22248;SDS011;67538;52.180;5.646;2023-11-21T09:07:56;54.50;;;18.80;;
22248;SDS011;67538;52.180;5.646;2023-11-21T09:10:23;44.37;;;17.90;;
22248;SDS011;67538;52.180;5.646;2023-11-21T09:12:50;46.03;;;18.13;;
22248;SDS011;67538;52.180;5.646;2023-11-21T09:15:18;44.03;;;19.00;;
22248;SDS011;67538;52.180;5.646;2023-11-21T09:17:46;43.60;;;18.10;;
22248;SDS011;67538;52.180;5.646;2023-11-21T09:20:14;46.43;;;18.70;;
22248;SDS011;67538;52.180;5.646;2023-11-21T09:22:41;43.57;;;17.83;;
22248;SDS011;67538;52.180;5.646;2023-11-21T09:25:09;48.77;;;19.43;;
22248;SDS011;67538;52.180;5.646;2023-11-21T09:27:37;41.70;;;18.17;;
22248;SDS011;67538;52.180;5.646;2023-11-21T09:30:05;40.17;;;17.47;;
22248;SDS011;67538;52.180;5.646;2023-11-21T09:32:35;45.50;;;17.83;;
22248;SDS011;67538;52.180;5.646;2023-11-21T09:35:04;38.17;;;17.60;;
22248;SDS011;67538;52.180;5.646;2023-11-21T09:37:33;42.50;;;17.37;;
22248;SDS011;67538;52.180;5.646;2023-11-21T09:40:01;43.83;;;17.53;;
22248;SDS011;67538;52.180;5.646;2023-11-21T09:42:30;38.70;;;16.73;;
22248;SDS011;67538;52.180;5.646;2023-11-21T09:45:03;37.30;;;16.17;;
22248;SDS011;67538;52.180;5.646;2023-11-21T09:47:32;39.97;;;17.20;;
22248;SDS011;67538;52.180;5.646;2023-11-21T09:50:03;42.03;;;16.87;;
22248;SDS011;67538;52.180;5.646;2023-11-21T09:52:33;35.00;;;15.70;;
22248;SDS011;67538;52.180;5.646;2023-11-21T09:55:13;33.23;;;15.20;;
22248;SDS011;67538;52.180;5.646;2023-11-21T09:57:43;41.43;;;16.40;;
22248;SDS011;67538;52.180;5.646;2023-11-21T10:00:13;36.93;;;16.47;;
22248;SDS011;67538;52.180;5.646;2023-11-21T10:02:43;35.67;;;15.57;;
22248;SDS011;67538;52.180;5.646;2023-11-21T10:05:11;38.53;;;17.10;;
22248;SDS011;67538;52.180;5.646;2023-11-21T10:07:38;41.43;;;15.77;;
22248;SDS011;67538;52.180;5.646;2023-11-21T10:10:08;37.87;;;16.50;;
22248;SDS011;67538;52.180;5.646;2023-11-21T10:12:36;39.20;;;16.67;;
22248;SDS011;67538;52.180;5.646;2023-11-21T10:15:05;39.20;;;16.93;;
22248;SDS011;67538;52.180;5.646;2023-11-21T10:17:36;35.40;;;15.70;;
22248;SDS011;67538;52.180;5.646;2023-11-21T10:20:08;39.60;;;15.60;;
22248;SDS011;67538;52.180;5.646;2023-11-21T10:22:38;40.27;;;16.20;;
22248;SDS011;67538;52.180;5.646;2023-11-21T10:25:07;39.50;;;15.60;;
22248;SDS011;67538;52.180;5.646;2023-11-21T10:27:35;39.50;;;16.83;;
22248;SDS011;67538;52.180;5.646;2023-11-21T10:30:04;42.13;;;16.97;;
22248;SDS011;67538;52.180;5.646;2023-11-21T10:32:32;46.30;;;17.07;;
22248;SDS011;67538;52.180;5.646;2023-11-21T10:35:00;39.97;;;16.70;;
22248;SDS011;67538;52.180;5.646;2023-11-21T10:37:33;42.17;;;16.33;;
22248;SDS011;67538;52.180;5.646;2023-11-21T10:40:00;40.50;;;16.00;;
22248;SDS011;67538;52.180;5.646;2023-11-21T10:42:27;42.00;;;15.30;;
22248;SDS011;67538;52.180;5.646;2023-11-21T10:44:54;42.80;;;15.60;;
22248;SDS011;67538;52.180;5.646;2023-11-21T10:47:21;38.07;;;14.80;;
22248;SDS011;67538;52.180;5.646;2023-11-21T10:49:49;41.80;;;14.73;;
22248;SDS011;67538;52.180;5.646;2023-11-21T10:52:18;34.00;;;14.47;;
22248;SDS011;67538;52.180;5.646;2023-11-21T10:54:47;35.60;;;13.57;;
22248;SDS011;67538;52.180;5.646;2023-11-21T10:57:18;35.37;;;13.17;;
22248;SDS011;67538;52.180;5.646;2023-11-21T10:59:47;35.90;;;13.87;;
22248;SDS011;67538;52.180;5.646;2023-11-21T11:02:18;34.87;;;13.43;;
22248;SDS011;67538;52.180;5.646;2023-11-21T11:04:50;37.97;;;14.17;;
22248;SDS011;67538;52.180;5.646;2023-11-21T11:07:20;34.07;;;13.53;;
22248;SDS011;67538;52.180;5.646;2023-11-21T11:09:52;35.17;;;13.07;;
22248;SDS011;67538;52.180;5.646;2023-11-21T11:12:20;32.10;;;12.17;;
22248;SDS011;67538;52.180;5.646;2023-11-21T11:14:47;35.17;;;12.93;;
22248;SDS011;67538;52.180;5.646;2023-11-21T11:17:15;30.93;;;11.33;;
22248;SDS011;67538;52.180;5.646;2023-11-21T11:19:45;33.23;;;11.50;;
22248;SDS011;67538;52.180;5.646;2023-11-21T11:22:16;31.40;;;13.53;;
22248;SDS011;67538;52.180;5.646;2023-11-21T11:25:11;40.30;;;13.90;;
22248;SDS011;67538;52.180;5.646;2023-11-21T11:27:52;30.00;;;12.43;;
22248;SDS011;67538;52.180;5.646;2023-11-21T11:30:27;41.33;;;13.40;;
22248;SDS011;67538;52.180;5.646;2023-11-21T11:33:08;33.27;;;12.80;;
22248;SDS011;67538;52.180;5.646;2023-11-21T11:35:42;32.63;;;12.20;;
22248;SDS011;67538;52.180;5.646;2023-11-21T11:38:21;41.20;;;13.97;;
22248;SDS011;67538;52.180;5.646;2023-11-21T11:40:52;40.60;;;15.40;;
22248;SDS011;67538;52.180;5.646;2023-11-21T11:43:24;36.17;;;13.90;;
22248;SDS011;67538;52.180;5.646;2023-11-21T11:45:52;34.30;;;14.03;;
22248;SDS011;67538;52.180;5.646;2023-11-21T11:48:22;34.20;;;13.50;;
22248;SDS011;67538;52.180;5.646;2023-11-21T11:51:05;37.53;;;14.93;;
22248;SDS011;67538;52.180;5.646;2023-11-21T11:53:37;37.97;;;16.37;;
22248;SDS011;67538;52.180;5.646;2023-11-21T11:56:26;40.57;;;15.60;;
22248;SDS011;67538;52.180;5.646;2023-11-21T11:58:55;36.10;;;15.10;;
22248;SDS011;67538;52.180;5.646;2023-11-21T12:01:24;31.77;;;13.93;;
22248;SDS011;67538;52.180;5.646;2023-11-21T12:06:56;34.20;;;15.00;;
22248;SDS011;67538;52.180;5.646;2023-11-21T12:09:25;35.07;;;15.60;;
22248;SDS011;67538;52.180;5.646;2023-11-21T12:11:55;34.60;;;14.80;;
22248;SDS011;67538;52.180;5.646;2023-11-21T12:14:22;31.73;;;15.27;;
22248;SDS011;67538;52.180;5.646;2023-11-21T12:16:50;29.73;;;14.93;;
22248;SDS011;67538;52.180;5.646;2023-11-21T12:19:18;37.93;;;15.07;;
22248;SDS011;67538;52.180;5.646;2023-11-21T12:21:47;40.27;;;15.57;;
22248;SDS011;67538;52.180;5.646;2023-11-21T12:24:15;36.63;;;15.27;;
22248;SDS011;67538;52.180;5.646;2023-11-21T12:26:42;31.10;;;14.60;;
22248;SDS011;67538;52.180;5.646;2023-11-21T12:29:11;38.97;;;16.43;;
22248;SDS011;67538;52.180;5.646;2023-11-21T12:31:38;37.93;;;15.83;;
22248;SDS011;67538;52.180;5.646;2023-11-21T12:34:06;42.57;;;16.57;;
22248;SDS011;67538;52.180;5.646;2023-11-21T12:36:36;40.93;;;16.57;;
22248;SDS011;67538;52.180;5.646;2023-11-21T12:39:03;39.77;;;15.97;;
22248;SDS011;67538;52.180;5.646;2023-11-21T12:41:31;40.47;;;16.53;;
22248;SDS011;67538;52.180;5.646;2023-11-21T12:43:58;33.73;;;15.17;;
22248;SDS011;67538;52.180;5.646;2023-11-21T12:46:26;37.60;;;16.40;;
22248;SDS011;67538;52.180;5.646;2023-11-21T12:48:56;37.37;;;16.60;;
22248;SDS011;67538;52.180;5.646;2023-11-21T12:51:24;37.60;;;15.23;;
22248;SDS011;67538;52.180;5.646;2023-11-21T12:53:51;34.40;;;15.10;;
22248;SDS011;67538;52.180;5.646;2023-11-21T12:56:18;36.73;;;15.43;;
22248;SDS011;67538;52.180;5.646;2023-11-21T12:58:49;31.10;;;13.73;;
22248;SDS011;67538;52.180;5.646;2023-11-21T13:01:19;29.23;;;14.20;;
22248;SDS011;67538;52.180;5.646;2023-11-21T13:03:50;32.37;;;12.87;;
22248;SDS011;67538;52.180;5.646;2023-11-21T13:06:18;26.90;;;12.03;;
22248;SDS011;67538;52.180;5.646;2023-11-21T13:08:49;27.03;;;11.53;;
22248;SDS011;67538;52.180;5.646;2023-11-21T13:11:17;18.37;;;7.77;;
22248;SDS011;67538;52.180;5.646;2023-11-21T13:13:44;13.23;;;6.33;;
22248;SDS011;67538;52.180;5.646;2023-11-21T13:16:11;14.60;;;6.90;;
22248;SDS011;67538;52.180;5.646;2023-11-21T13:18:40;12.77;;;6.10;;
22248;SDS011;67538;52.180;5.646;2023-11-21T13:21:09;13.53;;;6.27;;
22248;SDS011;67538;52.180;5.646;2023-11-21T13:23:38;16.00;;;6.40;;
22248;SDS011;67538;52.180;5.646;2023-11-21T13:26:06;16.70;;;6.47;;
22248;SDS011;67538;52.180;5.646;2023-11-21T13:28:34;17.63;;;6.87;;
22248;SDS011;67538;52.180;5.646;2023-11-21T13:31:02;13.50;;;6.87;;
22248;SDS011;67538;52.180;5.646;2023-11-21T13:33:34;16.57;;;6.70;;
22248;SDS011;67538;52.180;5.646;2023-11-21T13:36:03;19.17;;;7.17;;
22248;SDS011;67538;52.180;5.646;2023-11-21T13:38:34;18.40;;;8.27;;
22248;SDS011;67538;52.180;5.646;2023-11-21T13:41:02;17.77;;;7.57;;
22248;SDS011;67538;52.180;5.646;2023-11-21T13:43:32;19.00;;;8.13;;
22248;SDS011;67538;52.180;5.646;2023-11-21T13:45:59;19.17;;;7.93;;
22248;SDS011;67538;52.180;5.646;2023-11-21T13:48:33;25.47;;;9.10;;
22248;SDS011;67538;52.180;5.646;2023-11-21T13:51:07;21.07;;;8.73;;
22248;SDS011;67538;52.180;5.646;2023-11-21T13:53:42;20.27;;;9.27;;
22248;SDS011;67538;52.180;5.646;2023-11-21T13:56:10;28.87;;;10.47;;
22248;SDS011;67538;52.180;5.646;2023-11-21T13:58:41;23.70;;;10.23;;
22248;SDS011;67538;52.180;5.646;2023-11-21T14:01:12;29.50;;;11.37;;
22248;SDS011;67538;52.180;5.646;2023-11-21T14:03:58;26.60;;;12.57;;
22248;SDS011;67538;52.180;5.646;2023-11-21T14:06:33;34.37;;;13.00;;
22248;SDS011;67538;52.180;5.646;2023-11-21T14:09:12;35.00;;;12.80;;
22248;SDS011;67538;52.180;5.646;2023-11-21T14:11:47;33.30;;;12.63;;
22248;SDS011;67538;52.180;5.646;2023-11-21T14:14:16;34.93;;;12.83;;
22248;SDS011;67538;52.180;5.646;2023-11-21T14:16:44;35.87;;;13.33;;
22248;SDS011;67538;52.180;5.646;2023-11-21T14:19:11;39.27;;;13.50;;
22248;SDS011;67538;52.180;5.646;2023-11-21T14:21:42;31.27;;;13.40;;
22248;SDS011;67538;52.180;5.646;2023-11-21T14:24:09;36.47;;;13.60;;
22248;SDS011;67538;52.180;5.646;2023-11-21T14:26:39;32.53;;;13.37;;
22248;SDS011;67538;52.180;5.646;2023-11-21T14:29:07;39.70;;;13.53;;
22248;SDS011;67538;52.180;5.646;2023-11-21T14:31:37;29.60;;;13.13;;